createdAt,value
2022-10-20T00:01:14.472Z,14.98
2022-10-20T00:03:41.797Z,12.40
2022-10-20T00:06:30.343Z,12.05
2022-10-20T00:09:02.652Z,12.43
2022-10-20T00:11:30.953Z,12.55
2022-10-20T00:13:59.434Z,12.98
2022-10-20T00:16:28.969Z,12.23
2022-10-20T00:18:57.839Z,10.75
2022-10-20T00:21:26.773Z,10.63
2022-10-20T00:23:54.298Z,10.88
2022-10-20T00:26:26.347Z,12.38
2022-10-20T00:28:54.858Z,14.43
2022-10-20T00:31:23.873Z,13.00
2022-10-20T00:33:51.061Z,13.45
2022-10-20T00:36:20.560Z,12.45
2022-10-20T00:38:48.018Z,12.60
2022-10-20T00:41:17.706Z,11.57
2022-10-20T00:43:47.951Z,12.65
2022-10-20T00:46:19.421Z,11.98
2022-10-20T00:48:50.023Z,12.57
2022-10-20T00:51:20.880Z,12.77
2022-10-20T00:53:51.290Z,12.52
2022-10-20T00:56:18.387Z,13.65
2022-10-20T00:58:46.531Z,11.50
2022-10-20T01:01:14.679Z,13.18
2022-10-20T01:03:47.031Z,12.20
2022-10-20T01:08:42.495Z,12.82
2022-10-20T01:11:18.331Z,11.13
2022-10-20T01:13:48.446Z,10.20
2022-10-20T01:16:50.067Z,9.52
2022-10-20T01:19:26.541Z,11.35
2022-10-20T01:22:01.814Z,12.93
2022-10-20T01:24:50.705Z,11.82
2022-10-20T01:27:36.598Z,12.70
2022-10-20T01:30:17.234Z,11.60
2022-10-20T01:32:51.778Z,12.10
2022-10-20T01:35:53.691Z,13.43
2022-10-20T01:38:42.045Z,11.65
2022-10-20T01:41:23.350Z,11.98
2022-10-20T01:43:51.522Z,12.25
2022-10-20T01:46:21.706Z,15.13
2022-10-20T01:48:50.135Z,16.83
2022-10-20T01:51:17.297Z,14.95
2022-10-20T01:53:44.536Z,14.40
2022-10-20T01:56:30.027Z,16.38
2022-10-20T01:59:32.425Z,13.75
2022-10-20T02:02:23.033Z,11.52
2022-10-20T02:05:23.577Z,9.77
2022-10-20T02:07:52.245Z,15.75
2022-10-20T02:10:28.877Z,16.45
2022-10-20T02:13:00.780Z,15.50
2022-10-20T02:15:30.959Z,12.80
2022-10-20T02:18:03.466Z,15.55
2022-10-20T02:20:32.196Z,14.85
2022-10-20T02:23:00.754Z,13.80
2022-10-20T02:25:29.813Z,12.23
2022-10-20T02:30:32.470Z,11.77
2022-10-20T02:32:59.523Z,12.98
2022-10-20T02:35:31.699Z,15.65
2022-10-20T02:37:59.225Z,15.63
2022-10-20T02:40:27.265Z,17.95
2022-10-20T02:42:54.622Z,19.13
2022-10-20T02:45:21.679Z,17.30
2022-10-20T02:47:48.786Z,15.73
2022-10-20T02:50:17.154Z,15.93
2022-10-20T02:52:44.458Z,17.42
2022-10-20T02:55:11.711Z,13.95
2022-10-20T02:57:39.151Z,13.30
2022-10-20T03:00:08.019Z,13.70
2022-10-20T03:02:35.248Z,15.10
2022-10-20T03:05:02.462Z,13.13
2022-10-20T03:07:29.536Z,12.38
2022-10-20T03:09:56.630Z,13.38
2022-10-20T03:12:24.703Z,14.02
2022-10-20T03:14:53.815Z,15.27
2022-10-20T03:17:20.945Z,15.60
2022-10-20T03:19:48.484Z,13.45
2022-10-20T03:22:15.533Z,14.10
2022-10-20T03:24:42.656Z,16.00
2022-10-20T03:27:09.737Z,13.60
2022-10-20T03:29:36.884Z,14.27
2022-10-20T03:32:04.088Z,13.80
2022-10-20T03:34:31.152Z,11.32
2022-10-20T03:36:58.246Z,13.35
2022-10-20T03:39:25.289Z,16.88
2022-10-20T03:41:52.565Z,19.35
2022-10-20T03:44:19.624Z,18.05
2022-10-20T03:46:46.691Z,14.82
2022-10-20T03:49:13.756Z,14.68
2022-10-20T03:51:40.973Z,13.23
2022-10-20T03:54:08.203Z,13.45
2022-10-20T03:56:35.355Z,12.43
2022-10-20T04:01:35.461Z,11.25
2022-10-20T04:04:02.754Z,12.18
2022-10-20T04:06:29.971Z,13.23
2022-10-20T04:08:57.105Z,11.77
2022-10-20T04:11:24.375Z,11.88
2022-10-20T04:13:51.819Z,12.18
2022-10-20T04:16:18.989Z,13.32
2022-10-20T04:18:46.186Z,14.15
2022-10-20T04:21:13.278Z,12.07
2022-10-20T04:23:40.373Z,11.65
2022-10-20T04:26:11.946Z,11.70
2022-10-20T04:28:39.138Z,11.77
2022-10-20T04:31:07.082Z,11.80
2022-10-20T04:33:34.866Z,11.27
2022-10-20T04:36:08.568Z,12.40
2022-10-20T04:38:35.934Z,11.55
2022-10-20T04:41:04.596Z,12.48
2022-10-20T04:43:33.028Z,12.68
2022-10-20T04:46:05.361Z,12.77
2022-10-20T04:48:35.271Z,14.43
2022-10-20T04:51:08.539Z,10.65
2022-10-20T04:53:36.625Z,12.57
2022-10-20T04:56:05.384Z,12.50
2022-10-20T04:58:33.613Z,12.05
2022-10-20T05:01:09.712Z,12.65
2022-10-20T05:03:37.145Z,13.00
2022-10-20T05:06:16.775Z,13.07
2022-10-20T05:08:46.724Z,11.63
2022-10-20T05:11:15.423Z,11.98
2022-10-20T05:13:43.066Z,11.68
2022-10-20T05:16:10.901Z,12.80
2022-10-20T05:18:39.315Z,11.52
2022-10-20T05:21:18.394Z,13.57
2022-10-20T05:23:45.971Z,13.00
2022-10-20T05:26:15.988Z,12.38
2022-10-20T05:28:45.871Z,13.30
2022-10-20T05:31:13.450Z,14.55
2022-10-20T05:33:46.210Z,14.65
2022-10-20T05:36:19.339Z,11.60
2022-10-20T05:38:49.988Z,12.32
2022-10-20T05:41:19.522Z,12.90
2022-10-20T05:43:57.262Z,12.27
2022-10-20T05:46:26.543Z,12.38
2022-10-20T05:48:55.816Z,17.48
2022-10-20T05:51:26.262Z,15.15
2022-10-20T05:53:56.065Z,13.93
2022-10-20T05:56:24.255Z,12.02
2022-10-20T05:58:51.658Z,12.90
2022-10-20T06:01:24.477Z,13.80
2022-10-20T06:03:59.955Z,12.18
2022-10-20T06:06:29.849Z,12.00
2022-10-20T06:08:59.450Z,10.93
2022-10-20T06:11:27.377Z,12.20
2022-10-20T06:13:56.245Z,13.20
2022-10-20T06:16:25.677Z,11.90
2022-10-20T06:18:53.908Z,12.38
2022-10-20T06:21:23.504Z,12.80
2022-10-20T06:23:51.418Z,11.48
2022-10-20T06:26:21.859Z,11.63
2022-10-20T06:28:51.847Z,11.88
2022-10-20T06:31:30.733Z,11.43
2022-10-20T06:33:58.978Z,11.93
2022-10-20T06:36:27.111Z,12.57
2022-10-20T06:38:56.686Z,12.48
2022-10-20T06:41:25.242Z,12.20
2022-10-20T06:43:58.347Z,13.57
2022-10-20T06:46:30.312Z,12.75
2022-10-20T06:48:59.876Z,12.13
2022-10-20T06:51:27.325Z,10.93
2022-10-20T06:53:54.374Z,12.75
2022-10-20T06:56:27.125Z,12.68
2022-10-20T06:58:55.763Z,14.10
2022-10-20T07:01:25.354Z,11.90
2022-10-20T07:03:55.707Z,11.50
2022-10-20T07:06:29.070Z,14.52
2022-10-20T07:08:57.410Z,13.45
2022-10-20T07:11:27.875Z,14.35
2022-10-20T07:13:55.189Z,12.25
2022-10-20T07:16:24.428Z,14.45
2022-10-20T07:18:52.466Z,11.57
2022-10-20T07:21:22.053Z,13.20
2022-10-20T07:23:51.052Z,12.20
2022-10-20T07:26:20.545Z,12.38
2022-10-20T07:28:55.392Z,12.43
2022-10-20T07:31:43.975Z,11.40
2022-10-20T07:34:24.260Z,11.45
2022-10-20T07:36:53.634Z,11.40
2022-10-20T07:39:20.958Z,12.82
2022-10-20T07:41:48.789Z,13.45
2022-10-20T07:44:16.786Z,11.60
2022-10-20T07:46:44.473Z,10.70
2022-10-20T07:49:42.479Z,11.13
2022-10-20T07:51:58.927Z,10.13
2022-10-20T07:54:26.136Z,10.68
2022-10-20T07:56:53.465Z,10.23
2022-10-20T07:59:20.890Z,9.65
2022-10-20T08:01:48.300Z,10.43
2022-10-20T08:04:15.547Z,9.75
2022-10-20T08:06:42.682Z,8.55
2022-10-20T08:09:09.822Z,9.77
2022-10-20T08:11:36.993Z,10.40
2022-10-20T08:14:04.560Z,14.23
2022-10-20T08:16:49.247Z,10.60
2022-10-20T08:19:29.883Z,11.27
2022-10-20T08:21:57.009Z,10.93
2022-10-20T08:24:24.228Z,9.52
2022-10-20T08:26:51.429Z,10.60
2022-10-20T08:29:18.562Z,11.73
2022-10-20T08:31:45.710Z,8.63
2022-10-20T08:34:12.898Z,10.32
2022-10-20T08:36:40.014Z,9.13
2022-10-20T08:39:07.199Z,10.70
2022-10-20T08:42:02.571Z,11.50
2022-10-20T08:44:31.571Z,9.60
2022-10-20T08:47:02.036Z,10.48
2022-10-20T08:49:32.925Z,10.20
2022-10-20T08:52:01.437Z,11.52
2022-10-20T08:54:28.819Z,12.30
2022-10-20T08:56:55.981Z,10.82
2022-10-20T08:59:38.241Z,10.73
2022-10-20T09:02:16.774Z,10.45
2022-10-20T09:04:48.310Z,9.43
2022-10-20T09:07:34.568Z,8.98
2022-10-20T09:10:36.047Z,11.05
2022-10-20T09:13:17.876Z,10.30
2022-10-20T09:15:45.145Z,9.85
2022-10-20T09:18:15.318Z,8.50
2022-10-20T09:20:56.243Z,7.93
2022-10-20T09:23:40.580Z,8.32
2022-10-20T09:26:37.505Z,8.95
2022-10-20T09:29:13.541Z,6.68
2022-10-20T09:31:55.333Z,6.95
2022-10-20T09:34:29.300Z,6.55
2022-10-20T09:37:08.638Z,5.65
2022-10-20T09:39:55.613Z,5.72
2022-10-20T09:42:28.952Z,6.88
2022-10-20T09:45:24.136Z,6.35
2022-10-20T09:47:54.601Z,5.10
2022-10-20T09:50:32.225Z,5.15
2022-10-20T09:53:02.410Z,6.25
2022-10-20T09:55:33.135Z,5.40
2022-10-20T09:58:02.391Z,4.72
2022-10-20T10:00:41.747Z,4.40
2022-10-20T10:03:11.085Z,4.32
2022-10-20T10:05:38.318Z,4.75
2022-10-20T10:08:05.490Z,3.88
2022-10-20T10:10:32.810Z,4.60
2022-10-20T10:13:01.535Z,3.78
2022-10-20T10:15:36.804Z,4.05
2022-10-20T10:18:19.307Z,3.78
2022-10-20T10:20:46.589Z,3.83
2022-10-20T10:23:27.574Z,3.75
2022-10-20T10:25:59.136Z,3.50
2022-10-20T10:28:37.581Z,4.00
2022-10-20T10:31:16.936Z,3.60
2022-10-20T10:33:44.123Z,3.38
2022-10-20T10:36:32.276Z,4.03
2022-10-20T10:39:00.102Z,3.53
2022-10-20T10:41:53.784Z,3.00
2022-10-20T10:44:21.086Z,3.25
2022-10-20T10:47:21.705Z,4.05
2022-10-20T10:49:48.813Z,4.10
2022-10-20T10:52:51.943Z,3.63
2022-10-20T10:55:47.675Z,3.83
2022-10-20T10:58:40.039Z,3.55
2022-10-20T11:01:16.100Z,4.25
2022-10-20T11:04:01.089Z,3.15
2022-10-20T11:06:54.200Z,3.58
2022-10-20T11:10:04.405Z,3.22
2022-10-20T11:12:55.993Z,2.63
2022-10-20T11:15:44.983Z,3.25
2022-10-20T11:18:37.825Z,3.33
2022-10-20T11:21:28.276Z,3.50
2022-10-20T11:24:10.437Z,2.85
2022-10-20T11:26:50.513Z,3.05
2022-10-20T11:29:52.029Z,3.25
2022-10-20T11:32:40.121Z,3.92
2022-10-20T11:35:39.687Z,3.80
2022-10-20T11:38:19.061Z,3.53
2022-10-20T11:41:06.340Z,3.47
2022-10-20T11:43:41.287Z,3.67
2022-10-20T11:46:18.040Z,3.42
2022-10-20T11:48:52.744Z,4.03
2022-10-20T11:51:31.572Z,3.85
2022-10-20T11:54:11.188Z,3.42
2022-10-20T11:57:15.515Z,3.42
2022-10-20T12:00:12.395Z,3.20
2022-10-20T12:03:21.613Z,2.78
2022-10-20T12:06:09.059Z,3.40
2022-10-20T12:09:01.022Z,3.25
2022-10-20T12:11:30.471Z,3.45
2022-10-20T12:14:03.713Z,3.47
2022-10-20T12:16:55.902Z,3.60
2022-10-20T12:19:25.622Z,3.17
2022-10-20T12:21:56.018Z,3.10
2022-10-20T12:25:04.315Z,3.05
2022-10-20T12:27:32.820Z,4.00
2022-10-20T12:30:01.165Z,3.53
2022-10-20T12:32:28.261Z,3.47
2022-10-20T12:34:58.021Z,3.60
2022-10-20T12:37:25.129Z,4.82
2022-10-20T12:39:54.548Z,2.97
2022-10-20T12:42:30.889Z,2.17
2022-10-20T12:45:24.162Z,1.98
2022-10-20T12:47:56.325Z,1.52
2022-10-20T12:50:42.092Z,1.38
2022-10-20T12:53:18.308Z,1.42
2022-10-20T12:55:53.734Z,1.83
2022-10-20T12:58:20.787Z,1.80
2022-10-20T13:00:49.544Z,1.23
2022-10-20T13:03:31.792Z,1.52
2022-10-20T13:05:59.889Z,1.80
2022-10-20T13:08:28.699Z,1.90
2022-10-20T13:10:56.946Z,1.75
2022-10-20T13:13:24.239Z,1.58
2022-10-20T13:15:55.624Z,2.45
2022-10-20T13:18:28.617Z,1.83
2022-10-20T13:20:58.162Z,2.00
2022-10-20T13:23:42.042Z,2.08
2022-10-20T13:26:26.473Z,2.72
2022-10-20T13:29:10.487Z,2.42
2022-10-20T13:31:37.587Z,2.92
2022-10-20T13:34:22.252Z,2.63
2022-10-20T13:36:52.359Z,1.85
2022-10-20T13:39:32.735Z,1.80
2022-10-20T13:42:03.047Z,1.55
2022-10-20T13:44:31.926Z,1.20
2022-10-20T13:47:14.722Z,1.20
2022-10-20T13:49:59.032Z,1.20
2022-10-20T13:52:32.029Z,0.85
2022-10-20T13:55:00.828Z,1.05
2022-10-20T13:57:30.851Z,0.80
2022-10-20T14:00:05.937Z,0.93
2022-10-20T14:02:35.777Z,0.68
2022-10-20T14:05:13.617Z,0.90
2022-10-20T14:07:42.778Z,1.40
2022-10-20T14:10:49.044Z,1.10
2022-10-20T14:13:22.975Z,1.23
2022-10-20T14:15:53.899Z,1.60
2022-10-20T14:18:25.519Z,1.30
2022-10-20T14:21:04.224Z,1.33
2022-10-20T14:23:39.821Z,1.17
2022-10-20T14:26:12.030Z,0.93
2022-10-20T14:28:40.307Z,1.25
2022-10-20T14:31:10.156Z,1.27
2022-10-20T14:33:42.300Z,1.33
2022-10-20T14:39:01.273Z,1.92
2022-10-20T14:41:31.752Z,1.85
2022-10-20T14:44:13.647Z,1.48
2022-10-20T14:46:47.976Z,1.60
2022-10-20T14:49:26.859Z,1.48
2022-10-20T14:51:59.182Z,1.02
2022-10-20T14:57:10.254Z,1.00
2022-10-20T14:59:49.561Z,0.90
2022-10-20T15:02:20.824Z,1.20
2022-10-20T15:04:49.394Z,1.58
2022-10-20T15:07:23.351Z,0.95
2022-10-20T15:09:54.778Z,1.70
2022-10-20T15:12:23.055Z,1.63
2022-10-20T15:14:53.058Z,1.30
2022-10-20T15:17:46.374Z,1.30
2022-10-20T15:20:34.558Z,1.35
2022-10-20T15:23:06.024Z,1.40
2022-10-20T15:25:48.112Z,1.00
2022-10-20T15:28:51.879Z,1.45
2022-10-20T15:31:30.062Z,1.00
2022-10-20T15:33:58.279Z,1.42
2022-10-20T15:36:41.748Z,0.98
2022-10-20T15:39:09.693Z,1.00
2022-10-20T15:41:36.960Z,1.42
2022-10-20T15:44:19.490Z,1.60
2022-10-20T15:49:14.178Z,0.93
2022-10-20T15:51:44.641Z,1.42
2022-10-20T15:54:14.825Z,1.48
2022-10-20T15:56:42.114Z,1.23
2022-10-20T15:59:09.258Z,1.17
2022-10-20T16:01:37.005Z,1.40
2022-10-20T16:04:19.384Z,1.10
2022-10-20T16:06:47.171Z,1.13
2022-10-20T16:09:16.085Z,1.33
2022-10-20T16:11:44.454Z,0.90
2022-10-20T16:14:12.448Z,1.15
2022-10-20T16:16:39.632Z,1.55
2022-10-20T16:19:06.744Z,1.08
2022-10-20T16:21:34.228Z,1.73
2022-10-20T16:24:01.624Z,1.83
2022-10-20T16:26:28.815Z,1.63
2022-10-20T16:28:55.970Z,2.30
2022-10-20T16:31:23.193Z,1.98
2022-10-20T16:33:50.336Z,2.33
2022-10-20T16:36:18.879Z,2.33
2022-10-20T16:38:45.965Z,2.00
2022-10-20T16:41:15.401Z,1.70
2022-10-20T16:43:44.965Z,2.20
2022-10-20T16:46:14.059Z,1.85
2022-10-20T16:48:42.849Z,2.33
2022-10-20T16:51:13.272Z,1.65
2022-10-20T16:53:40.322Z,1.45
2022-10-20T16:56:08.044Z,1.90
2022-10-20T16:58:35.512Z,1.73
2022-10-20T17:01:08.807Z,1.35
2022-10-20T17:03:37.016Z,2.20
2022-10-20T17:06:07.038Z,1.80
2022-10-20T17:08:36.009Z,1.98
2022-10-20T17:11:09.027Z,1.75
2022-10-20T17:13:37.286Z,1.67
2022-10-20T17:16:07.759Z,1.45
2022-10-20T17:18:35.042Z,2.10
2022-10-20T17:21:02.265Z,1.85
2022-10-20T17:23:40.121Z,1.83
2022-10-20T17:26:13.402Z,2.30
2022-10-20T17:28:40.559Z,2.90
2022-10-20T17:31:09.657Z,2.13
2022-10-20T17:33:37.920Z,1.80
2022-10-20T17:36:06.148Z,2.35
2022-10-20T17:38:33.657Z,1.80
2022-10-20T17:41:11.338Z,1.75
2022-10-20T17:43:38.640Z,1.90
2022-10-20T17:46:09.036Z,1.20
2022-10-20T17:48:36.977Z,1.52
2022-10-20T17:51:05.586Z,1.25
2022-10-20T17:53:37.266Z,1.25
2022-10-20T17:56:10.915Z,1.27
2022-10-20T17:58:38.458Z,1.95
2022-10-20T18:01:23.693Z,1.85
2022-10-20T18:03:56.308Z,1.10
2022-10-20T18:06:25.665Z,1.45
2022-10-20T18:08:58.691Z,1.60
2022-10-20T18:13:59.515Z,1.58
2022-10-20T18:16:28.906Z,1.40
2022-10-20T18:18:59.802Z,1.67
2022-10-20T18:21:28.547Z,1.90
2022-10-20T18:24:02.409Z,1.77
2022-10-20T18:26:31.747Z,1.80
2022-10-20T18:29:00.173Z,1.80
2022-10-20T18:31:30.401Z,2.22
2022-10-20T18:34:04.423Z,1.80
2022-10-20T18:36:34.910Z,3.13
2022-10-20T18:39:02.059Z,2.58
2022-10-20T18:41:31.439Z,2.35
2022-10-20T18:44:01.159Z,2.50
2022-10-20T18:46:30.608Z,2.45
2022-10-20T18:48:59.143Z,1.90
2022-10-20T18:51:27.464Z,2.25
2022-10-20T18:53:56.767Z,2.30
2022-10-20T18:56:25.814Z,2.30
2022-10-20T18:58:57.843Z,3.08
2022-10-20T19:01:27.835Z,2.80
2022-10-20T19:03:57.185Z,2.20
2022-10-20T19:06:32.937Z,2.55
2022-10-20T19:09:14.553Z,2.60
2022-10-20T19:11:42.375Z,2.70
2022-10-20T19:14:11.531Z,2.28
2022-10-20T19:16:40.247Z,2.45
2022-10-20T19:19:08.285Z,2.30
2022-10-20T19:21:35.949Z,2.50
2022-10-20T19:24:06.717Z,2.60
2022-10-20T19:26:38.167Z,2.85
2022-10-20T19:29:10.971Z,2.40
2022-10-20T19:31:47.020Z,2.40
2022-10-20T19:34:19.896Z,2.20
2022-10-20T19:36:47.265Z,2.30
2022-10-20T19:39:17.397Z,1.83
2022-10-20T19:41:45.292Z,3.08
2022-10-20T19:44:12.755Z,2.60
2022-10-20T19:46:41.177Z,2.47
2022-10-20T19:54:08.454Z,2.22
2022-10-20T19:56:36.324Z,2.55
2022-10-20T19:59:05.515Z,2.08
2022-10-20T20:01:33.532Z,1.80
2022-10-20T20:04:00.763Z,2.40
2022-10-20T20:06:28.868Z,2.63
2022-10-20T20:09:01.237Z,2.83
2022-10-20T20:14:01.552Z,2.20
2022-10-20T20:16:29.690Z,1.92
2022-10-20T20:18:57.351Z,2.90
2022-10-20T20:21:25.748Z,2.85
2022-10-20T20:23:59.889Z,2.97
2022-10-20T20:26:29.777Z,3.45
2022-10-20T20:28:57.592Z,2.60
2022-10-20T20:31:25.820Z,2.95
2022-10-20T20:33:53.719Z,2.30
2022-10-20T20:36:21.397Z,2.42
2022-10-20T20:38:50.693Z,2.50
2022-10-20T20:41:21.017Z,2.50
2022-10-20T20:43:48.245Z,2.28
2022-10-20T20:46:17.717Z,2.88
2022-10-20T20:48:45.570Z,2.45
2022-10-20T20:51:13.735Z,2.67
2022-10-20T20:53:41.372Z,2.10
2022-10-20T20:56:14.179Z,2.20
2022-10-20T20:58:45.153Z,2.50
2022-10-20T21:01:18.315Z,2.83
2022-10-20T21:03:46.192Z,3.03
2022-10-20T21:06:18.342Z,3.38
2022-10-20T21:08:49.906Z,2.55
2022-10-20T21:11:20.165Z,2.30
2022-10-20T21:13:49.667Z,2.45
2022-10-20T21:16:27.299Z,2.83
2022-10-20T21:18:56.733Z,2.47
2022-10-20T21:21:27.125Z,2.80
2022-10-20T21:23:55.704Z,2.60
2022-10-20T21:26:23.401Z,2.20
2022-10-20T21:28:51.016Z,2.95
2022-10-20T21:31:21.548Z,2.67
2022-10-20T21:33:57.720Z,2.58
2022-10-20T21:36:26.265Z,2.80
2022-10-20T21:38:54.074Z,3.95
2022-10-20T21:41:27.126Z,3.53
2022-10-20T21:43:56.677Z,2.50
2022-10-20T21:46:31.932Z,3.17
2022-10-20T21:49:01.392Z,2.50
2022-10-20T21:51:34.441Z,3.08
2022-10-20T21:54:12.470Z,3.53
2022-10-20T21:56:41.540Z,2.88
2022-10-20T21:59:19.336Z,3.17
2022-10-20T22:01:47.995Z,3.13
2022-10-20T22:04:15.991Z,3.72
2022-10-20T22:06:43.272Z,2.65
2022-10-20T22:09:11.933Z,2.58
2022-10-20T22:11:42.079Z,2.60
2022-10-20T22:14:09.674Z,3.47
2022-10-20T22:16:39.487Z,2.90
2022-10-20T22:19:08.370Z,2.75
2022-10-20T22:21:41.107Z,2.45
2022-10-20T22:24:08.343Z,2.72
2022-10-20T22:26:35.827Z,3.53
2022-10-20T22:29:05.589Z,3.40
2022-10-20T22:31:32.767Z,3.10
2022-10-20T22:34:00.318Z,2.42
2022-10-20T22:36:28.985Z,2.83
2022-10-20T22:38:56.513Z,2.85
2022-10-20T22:41:24.095Z,2.80
2022-10-20T22:43:51.170Z,2.72
2022-10-20T22:46:18.588Z,2.53
2022-10-20T22:48:49.000Z,2.63
2022-10-20T22:51:16.632Z,2.63
2022-10-20T22:53:44.594Z,2.70
2022-10-20T22:56:20.463Z,2.95
2022-10-20T22:58:49.253Z,2.78
2022-10-20T23:01:20.586Z,3.30
2022-10-20T23:03:48.405Z,3.07
2022-10-20T23:06:18.761Z,2.70
2022-10-20T23:08:48.823Z,2.65
2022-10-20T23:11:16.918Z,2.67
2022-10-20T23:13:44.785Z,2.60
2022-10-20T23:16:12.273Z,3.17
2022-10-20T23:18:40.229Z,3.45
2022-10-20T23:21:07.893Z,3.75
2022-10-20T23:23:38.665Z,3.47
2022-10-20T23:26:07.803Z,3.50
2022-10-20T23:28:35.713Z,3.75
2022-10-20T23:31:14.929Z,2.40
2022-10-20T23:33:43.882Z,3.35
2022-10-20T23:36:12.200Z,2.85
2022-10-20T23:38:39.526Z,2.85
2022-10-20T23:41:06.748Z,2.75
2022-10-20T23:46:07.172Z,2.63
2022-10-20T23:48:35.004Z,3.30
2022-10-20T23:51:02.209Z,2.42
2022-10-20T23:53:29.340Z,2.90
2022-10-20T23:55:56.548Z,2.92
2022-10-20T23:58:23.938Z,4.10
